Time;durP1;ratioP1;P1;durP2;ratioP2;P2;SDS_P1;SDS_P2;PMS_P1;PMS_P2;Temp;Humidity;BMP_temperature;BMP_pressure;BME280_temperature;BME280_humidity;BME280_pressure;Samples;Min_cycle;Max_cycle;Signal;HPM_P1;HPM_P2
2021/01/16 00:00:33;;;;;;;18.87;8.07;;;1.30;88.70;;;;;;5005721;28;20069;-91
2021/01/16 00:02:59;;;;;;;20.27;8.73;;;1.30;88.90;;;;;;5005456;28;20041;-91
2021/01/16 00:05:28;;;;;;;16.67;6.93;;;1.30;88.80;;;;;;5005398;28;20019;-90
2021/01/16 00:08:05;;;;;;;16.40;6.70;;;1.30;89.30;;;;;;5005395;28;20070;-90
2021/01/16 00:10:35;;;;;;;16.77;6.53;;;1.40;88.70;;;;;;5005496;28;20050;-90
2021/01/16 00:13:00;;;;;;;;;;;1.30;88.60;;;;;;5005827;28;20087;-89
2021/01/16 00:15:27;;;;;;;16.73;6.93;;;1.30;87.60;;;;;;5005220;28;19894;-90
2021/01/16 00:18:01;;;;;;;18.63;5.93;;;1.30;87.40;;;;;;5005316;28;20019;-89
2021/01/16 00:20:27;;;;;;;16.77;6.10;;;1.30;87.20;;;;;;5005291;28;20082;-89
2021/01/16 00:22:53;;;;;;;17.87;6.83;;;1.30;89.00;;;;;;5005215;28;20017;-90
2021/01/16 00:25:19;;;;;;;17.40;7.17;;;1.30;88.40;;;;;;5005003;28;20015;-90
2021/01/16 00:27:44;;;;;;;19.77;7.40;;;1.30;88.30;;;;;;5004891;28;20061;-90
2021/01/16 00:30:11;;;;;;;18.37;7.83;;;1.30;88.60;;;;;;5005196;28;20014;-91
2021/01/16 00:32:38;;;;;;;17.93;7.33;;;1.30;88.20;;;;;;5004784;28;20021;-90
2021/01/16 00:35:07;;;;;;;17.93;6.20;;;1.30;87.80;;;;;;5005060;28;20022;-90
2021/01/16 00:37:32;;;;;;;15.13;5.90;;;1.30;88.20;;;;;;5004995;28;20010;-90
2021/01/16 00:39:58;;;;;;;15.60;6.13;;;1.30;88.00;;;;;;5004891;28;20022;-90
2021/01/16 00:42:23;;;;;;;17.63;6.53;;;1.30;88.20;;;;;;5004990;28;20010;-90
2021/01/16 00:44:49;;;;;;;15.80;6.73;;;1.30;88.40;;;;;;5003822;28;20018;-90
2021/01/16 00:47:15;;;;;;;15.47;6.30;;;1.30;88.30;;;;;;5004678;28;20019;-91
2021/01/16 00:49:40;;;;;;;15.80;6.33;;;1.40;88.40;;;;;;5004993;28;20021;-90
2021/01/16 00:52:06;;;;;;;16.23;6.20;;;1.40;88.30;;;;;;5004618;28;20021;-90
2021/01/16 00:54:31;;;;;;;15.80;6.20;;;1.40;87.50;;;;;;5004735;28;20029;-90
2021/01/16 00:56:57;;;;;;;16.97;6.70;;;1.40;87.80;;;;;;5004432;28;20018;-91
2021/01/16 00:59:22;;;;;;;17.73;6.73;;;1.40;87.00;;;;;;5004502;28;20041;-89
2021/01/16 01:01:48;;;;;;;16.40;6.70;;;1.40;87.60;;;;;;5004238;28;20078;-91
2021/01/16 01:04:13;;;;;;;17.20;7.13;;;1.40;88.20;;;;;;5004281;28;20018;-90
2021/01/16 01:06:39;;;;;;;16.07;6.07;;;1.40;87.60;;;;;;5004191;28;20022;-90
2021/01/16 01:09:04;;;;;;;16.80;6.97;;;1.40;87.60;;;;;;5004281;28;20031;-90
2021/01/16 01:11:30;;;;;;;18.77;7.17;;;1.30;87.00;;;;;;5004547;28;20061;-90
2021/01/16 01:13:56;;;;;;;21.50;7.07;;;1.40;87.50;;;;;;5004195;28;20090;-90
2021/01/16 01:16:21;;;;;;;16.07;6.77;;;1.30;87.30;;;;;;5004054;28;20022;-91
2021/01/16 01:18:48;;;;;;;17.43;6.63;;;1.40;88.50;;;;;;5004432;28;20091;-89
2021/01/16 01:21:14;;;;;;;18.37;6.63;;;1.30;88.40;;;;;;5003990;28;20007;-91
2021/01/16 01:23:40;;;;;;;16.87;7.23;;;1.40;87.60;;;;;;5004187;28;20014;-89
2021/01/16 01:26:06;;;;;;;19.43;7.57;;;1.40;87.80;;;;;;5003792;28;20025;-89
2021/01/16 01:28:31;;;;;;;17.47;6.07;;;1.30;87.60;;;;;;5003918;28;20052;-90
2021/01/16 01:30:57;;;;;;;16.27;7.13;;;1.30;87.80;;;;;;5003899;28;20042;-91
2021/01/16 01:33:22;;;;;;;16.03;6.57;;;1.40;87.80;;;;;;5003966;28;20042;-90
2021/01/16 01:35:48;;;;;;;21.67;7.57;;;1.40;87.90;;;;;;5003786;28;20010;-90
2021/01/16 01:38:17;;;;;;;18.53;7.57;;;1.40;88.00;;;;;;5003704;28;20018;-90
2021/01/16 01:40:43;;;;;;;;;;;1.40;88.00;;;;;;5004227;28;20010;-89
2021/01/16 01:43:08;;;;;;;17.43;6.87;;;1.40;86.30;;;;;;5003868;28;19909;-90
2021/01/16 01:45:34;;;;;;;16.43;6.47;;;1.30;87.90;;;;;;5003643;28;20101;-90
2021/01/16 01:48:01;;;;;;;18.87;7.07;;;1.30;88.10;;;;;;5003684;28;20027;-90
2021/01/16 01:50:28;;;;;;;16.07;6.50;;;1.30;87.80;;;;;;5003583;28;20037;-90
2021/01/16 01:52:56;;;;;;;17.27;6.47;;;1.30;88.20;;;;;;5003602;28;20037;-90
2021/01/16 01:55:22;;;;;;;16.93;6.73;;;1.30;88.20;;;;;;5003457;28;20102;-90
2021/01/16 01:57:53;;;;;;;15.53;6.20;;;1.30;88.20;;;;;;5003492;28;20081;-90
2021/01/16 02:00:21;;;;;;;16.53;6.90;;;1.30;88.10;;;;;;5003318;28;20045;-91
2021/01/16 02:02:48;;;;;;;16.13;6.20;;;1.30;88.30;;;;;;5003089;28;20081;-90
2021/01/16 02:05:14;;;;;;;17.77;6.80;;;1.30;88.30;;;;;;5003213;28;20011;-90
2021/01/16 02:07:40;;;;;;;17.23;6.73;;;1.30;88.10;;;;;;5003305;28;20033;-92
2021/01/16 02:10:09;;;;;;;16.13;6.47;;;1.30;88.10;;;;;;5003183;28;20010;-92
2021/01/16 02:12:35;;;;;;;18.10;7.57;;;1.30;88.10;;;;;;5003337;28;20089;-90
2021/01/16 02:15:07;;;;;;;18.43;6.57;;;1.30;88.20;;;;;;5003121;28;20022;-92
2021/01/16 02:17:38;;;;;;;15.40;6.23;;;1.30;88.30;;;;;;5003037;28;20022;-92
2021/01/16 02:20:08;;;;;;;17.07;6.30;;;1.30;88.30;;;;;;5003129;28;20086;-92
2021/01/16 02:23:00;;;;;;;15.03;5.80;;;1.40;88.10;;;;;;5002993;28;20018;-91
2021/01/16 02:25:40;;;;;;;16.97;7.20;;;1.40;87.50;;;;;;5002960;28;20006;-90
2021/01/16 02:28:08;;;;;;;17.37;6.17;;;1.40;87.00;;;;;;5002656;28;20018;-91
2021/01/16 02:30:40;;;;;;;16.33;6.50;;;1.30;87.00;;;;;;5002481;28;20017;-90
2021/01/16 02:33:08;;;;;;;16.50;6.30;;;1.40;87.60;;;;;;5002941;28;20011;-89
2021/01/16 02:35:42;;;;;;;16.75;6.53;;;1.30;87.70;;;;;;5002737;28;20011;-91
2021/01/16 02:38:22;;;;;;;17.43;6.73;;;1.30;87.70;;;;;;5002648;28;20034;-90
2021/01/16 02:40:52;;;;;;;18.20;7.10;;;1.40;87.50;;;;;;5002514;28;20044;-90
2021/01/16 02:43:31;;;;;;;17.00;6.67;;;1.40;87.70;;;;;;5002753;28;20011;-90
2021/01/16 02:46:10;;;;;;;17.05;6.57;;;1.40;87.70;;;;;;5002714;28;20057;-90
2021/01/16 02:49:10;;;;;;;16.67;6.53;;;1.40;87.70;;;;;;5002785;28;20042;-90
2021/01/16 02:52:07;;;;;;;16.13;6.40;;;1.40;87.60;;;;;;4973257;28;20030;-90
2021/01/16 02:54:38;;;;;;;17.33;6.47;;;1.40;86.30;;;;;;5002478;28;20034;-91
2021/01/16 02:57:06;;;;;;;16.57;6.60;;;1.40;86.60;;;;;;5002502;28;20014;-90
2021/01/16 02:59:38;;;;;;;16.50;6.77;;;1.40;87.10;;;;;;5002420;28;20054;-92
2021/01/16 03:02:06;;;;;;;18.43;6.50;;;1.40;86.70;;;;;;5002403;28;20057;-91
2021/01/16 03:04:36;;;;;;;17.80;6.53;;;1.40;86.50;;;;;;5002404;28;20030;-91
2021/01/16 03:07:03;;;;;;;15.13;6.30;;;1.30;87.20;;;;;;5002797;28;20026;-90
2021/01/16 03:09:30;;;;;;;17.70;6.50;;;1.30;87.30;;;;;;5006680;28;20053;-92
2021/01/16 03:11:57;;;;;;;17.67;6.50;;;1.30;87.60;;;;;;5006462;28;20052;-91
2021/01/16 03:14:28;;;;;;;17.60;6.97;;;1.30;87.30;;;;;;5006450;28;20042;-90
2021/01/16 03:17:15;;;;;;;17.70;7.47;;;1.30;87.50;;;;;;5006374;28;20018;-89
2021/01/16 03:19:46;;;;;;;16.97;6.67;;;1.30;87.70;;;;;;5006293;28;20019;-90
2021/01/16 03:22:23;;;;;;;19.07;7.03;;;1.30;87.00;;;;;;5006206;28;20097;-88
2021/01/16 03:24:54;;;;;;;17.33;7.40;;;1.30;87.80;;;;;;5005828;28;20041;-90
2021/01/16 03:27:20;;;;;;;17.60;7.67;;;1.30;86.60;;;;;;5006089;28;20037;-93
2021/01/16 03:29:46;;;;;;;16.83;6.60;;;1.30;87.80;;;;;;5006257;28;20014;-90
2021/01/16 03:32:13;;;;;;;19.23;8.20;;;1.30;87.70;;;;;;5005947;28;20090;-89
2021/01/16 03:34:41;;;;;;;20.37;7.50;;;1.30;87.50;;;;;;5005969;28;20010;-91
2021/01/16 03:37:07;;;;;;;18.33;7.70;;;1.30;87.50;;;;;;5006070;28;20034;-90
2021/01/16 03:39:34;;;;;;;20.07;8.03;;;1.40;87.40;;;;;;5006058;28;20045;-90
2021/01/16 03:42:00;;;;;;;19.37;7.63;;;1.30;87.40;;;;;;5005928;28;20018;-91
2021/01/16 03:44:25;;;;;;;19.37;7.43;;;1.30;87.60;;;;;;5005727;28;20037;-92
2021/01/16 03:46:51;;;;;;;20.00;7.47;;;1.40;87.70;;;;;;5005682;28;20038;-91
2021/01/16 03:49:17;;;;;;;21.57;8.10;;;1.40;87.90;;;;;;5005916;28;20014;-90
2021/01/16 03:51:42;;;;;;;18.07;7.23;;;1.40;87.90;;;;;;5005422;28;20038;-92
2021/01/16 03:54:08;;;;;;;18.03;8.03;;;1.40;87.80;;;;;;5005494;28;20102;-90
2021/01/16 03:56:35;;;;;;;18.23;8.20;;;1.40;87.70;;;;;;5005276;28;20027;-90
2021/01/16 03:59:01;;;;;;;18.83;8.00;;;1.40;87.50;;;;;;5005307;28;20102;-91
2021/01/16 04:01:27;;;;;;;18.90;8.00;;;1.40;87.70;;;;;;5005607;28;20011;-92
2021/01/16 04:03:52;;;;;;;19.43;8.07;;;1.40;87.70;;;;;;5004911;28;20026;-92
2021/01/16 04:06:18;;;;;;;20.40;8.37;;;1.40;87.70;;;;;;5005331;28;20017;-92
2021/01/16 04:08:44;;;;;;;19.63;8.43;;;1.40;87.60;;;;;;5005047;28;20043;-91
2021/01/16 04:11:11;;;;;;;20.47;8.43;;;1.40;87.80;;;;;;5005180;28;20102;-91
2021/01/16 04:13:37;;;;;;;20.57;7.90;;;1.40;87.50;;;;;;5005222;28;20018;-92
2021/01/16 04:16:04;;;;;;;18.63;8.33;;;1.40;87.50;;;;;;5005407;28;20018;-92
2021/01/16 04:18:29;;;;;;;19.27;8.73;;;1.40;87.60;;;;;;5005261;28;20014;-93
2021/01/16 04:20:55;;;;;;;21.27;8.97;;;1.40;87.60;;;;;;5005436;28;20038;-92
2021/01/16 04:23:21;;;;;;;22.77;8.87;;;1.40;87.60;;;;;;5005059;28;20018;-93
2021/01/16 04:25:46;;;;;;;19.97;9.10;;;1.40;87.50;;;;;;5004756;28;20013;-90
2021/01/16 04:28:12;;;;;;;22.47;9.40;;;1.40;87.50;;;;;;5004290;28;20038;-92
2021/01/16 04:30:38;;;;;;;21.43;9.40;;;1.40;87.70;;;;;;5004627;28;20034;-92
2021/01/16 04:33:04;;;;;;;21.40;9.27;;;1.40;87.80;;;;;;5004134;28;20045;-92
2021/01/16 04:35:30;;;;;;;21.73;8.83;;;1.40;87.90;;;;;;5004596;28;20041;-91
2021/01/16 04:37:55;;;;;;;22.97;9.90;;;1.40;87.90;;;;;;5004717;28;20014;-93
2021/01/16 04:40:21;;;;;;;21.23;10.03;;;1.40;88.00;;;;;;5004762;28;20053;-92
2021/01/16 04:42:47;;;;;;;23.47;10.00;;;1.40;88.00;;;;;;5004734;28;20014;-92
2021/01/16 04:45:14;;;;;;;20.97;10.40;;;1.40;88.00;;;;;;5004651;28;20018;-91
2021/01/16 04:47:43;;;;;;;22.00;9.30;;;1.40;87.90;;;;;;5004432;28;20026;-93
2021/01/16 04:50:18;;;;;;;21.80;10.13;;;1.50;87.90;;;;;;5004756;28;20037;-91
2021/01/16 04:52:45;;;;;;;21.40;9.30;;;1.40;87.90;;;;;;5004518;28;20019;-92
2021/01/16 04:55:13;;;;;;;22.23;10.10;;;1.40;87.90;;;;;;5004463;28;20018;-92
2021/01/16 04:57:40;;;;;;;21.53;9.40;;;1.40;87.70;;;;;;5004174;28;20107;-92
2021/01/16 05:00:08;;;;;;;23.60;10.97;;;1.40;87.40;;;;;;4987513;28;20043;-92
2021/01/16 05:02:39;;;;;;;22.10;10.07;;;1.40;87.70;;;;;;4981553;28;20058;-92
2021/01/16 05:05:11;;;;;;;25.10;10.80;;;1.40;87.70;;;;;;4981460;28;20015;-93
2021/01/16 05:07:38;;;;;;;23.37;10.80;;;1.40;88.00;;;;;;4981381;28;20043;-92
2021/01/16 05:10:06;;;;;;;24.67;11.50;;;1.40;87.90;;;;;;4981590;28;20031;-92
2021/01/16 05:12:32;;;;;;;25.37;11.13;;;1.40;87.90;;;;;;4981342;28;20054;-93
2021/01/16 05:15:19;;;;;;;23.67;10.73;;;1.40;88.00;;;;;;4981474;28;20015;-92
2021/01/16 05:17:59;;;;;;;24.87;10.77;;;1.50;88.10;;;;;;4981324;28;20062;-91
2021/01/16 05:20:25;;;;;;;23.37;10.80;;;1.50;87.90;;;;;;4981324;28;20011;-92
2021/01/16 05:22:50;;;;;;;23.27;10.90;;;1.50;87.80;;;;;;4981422;28;20015;-92
2021/01/16 05:25:16;;;;;;;22.83;10.67;;;1.40;87.90;;;;;;4980960;28;20058;-93
2021/01/16 05:27:51;;;;;;;24.37;11.77;;;1.40;88.00;;;;;;4980913;28;20042;-92
2021/01/16 05:30:17;;;;;;;22.97;11.40;;;1.40;87.80;;;;;;4980894;28;20015;-92
2021/01/16 05:32:43;;;;;;;24.37;11.50;;;1.40;88.00;;;;;;4980954;28;20026;-92
2021/01/16 05:35:21;;;;;;;25.00;11.53;;;1.50;87.90;;;;;;4981009;28;20011;-92
2021/01/16 05:37:48;;;;;;;23.37;11.23;;;1.50;87.80;;;;;;4980907;28;20030;-92
2021/01/16 05:40:17;;;;;;;25.20;11.47;;;1.60;87.70;;;;;;4980795;28;20269;-92
2021/01/16 05:42:44;;;;;;;23.88;11.00;;;1.50;87.20;;;;;;4980957;28;20087;-93
2021/01/16 05:45:11;;;;;;;23.50;10.57;;;1.50;87.20;;;;;;4981005;28;20019;-91
2021/01/16 05:47:41;;;;;;;24.17;11.00;;;1.50;87.50;;;;;;4980664;28;20058;-92
2021/01/16 05:50:09;;;;;;;23.17;10.90;;;1.60;87.30;;;;;;4980547;28;20062;-93
2021/01/16 05:52:38;;;;;;;25.13;11.43;;;1.60;87.10;;;;;;4980646;28;20011;-92
2021/01/16 05:55:06;;;;;;;25.15;12.15;;;1.50;87.20;;;;;;4980678;28;20039;-92
2021/01/16 05:57:32;;;;;;;25.00;11.23;;;1.50;87.30;;;;;;4980528;28;20023;-92
2021/01/16 06:00:00;;;;;;;26.83;12.30;;;1.50;87.20;;;;;;4980520;28;20091;-91
2021/01/16 06:02:31;;;;;;;24.13;11.33;;;1.50;87.50;;;;;;4980408;28;20041;-92
2021/01/16 06:04:57;;;;;;;25.07;11.33;;;1.50;87.60;;;;;;4980403;28;20159;-92
2021/01/16 06:07:24;;;;;;;25.00;11.10;;;1.50;87.70;;;;;;4980480;28;20042;-91
2021/01/16 06:09:55;;;;;;;23.93;11.70;;;1.50;87.70;;;;;;4980767;28;20039;-92
2021/01/16 06:12:22;;;;;;;24.90;11.60;;;1.50;87.70;;;;;;4980565;28;20087;-92
2021/01/16 06:14:49;;;;;;;22.43;10.83;;;1.50;87.60;;;;;;4980301;28;20124;-93
2021/01/16 06:17:17;;;;;;;22.80;11.73;;;1.50;87.60;;;;;;4980202;28;20053;-92
2021/01/16 06:19:48;;;;;;;24.27;11.57;;;1.50;87.70;;;;;;4980291;28;20082;-93
2021/01/16 06:22:15;;;;;;;22.17;11.27;;;1.50;87.80;;;;;;4980215;28;20019;-93
2021/01/16 06:24:49;;;;;;;23.20;11.60;;;1.50;87.90;;;;;;4979939;28;20075;-91
2021/01/16 06:27:26;;;;;;;24.27;11.30;;;1.50;87.80;;;;;;4979626;28;20047;-91
2021/01/16 06:30:02;;;;;;;23.90;11.07;;;1.50;87.80;;;;;;4980241;28;20019;-91
2021/01/16 06:32:29;;;;;;;23.60;11.77;;;1.50;87.70;;;;;;4979655;28;20015;-92
2021/01/16 06:35:28;;;;;;;24.77;11.37;;;1.50;88.00;;;;;;4979779;28;20019;-91
2021/01/16 06:37:53;;;;;;;24.08;11.18;;;1.50;88.00;;;;;;4979938;28;20027;-91
2021/01/16 06:40:30;;;;;;;23.33;11.00;;;1.50;88.00;;;;;;4979917;28;20039;-91
2021/01/16 06:42:57;;;;;;;24.83;11.77;;;1.50;87.90;;;;;;4979189;28;20019;-92
2021/01/16 06:45:27;;;;;;;23.90;10.27;;;1.50;88.10;;;;;;4979918;28;20039;-91
2021/01/16 06:48:01;;;;;;;23.97;10.67;;;1.50;87.90;;;;;;4979856;28;20051;-91
2021/01/16 06:50:28;;;;;;;22.90;10.33;;;1.50;87.70;;;;;;4979839;28;20070;-90
2021/01/16 06:52:54;;;;;;;23.07;10.77;;;1.50;87.70;;;;;;4979839;28;20022;-91
2021/01/16 06:55:21;;;;;;;22.97;10.80;;;1.50;87.10;;;;;;4979847;28;20031;-91
2021/01/16 06:57:47;;;;;;;23.37;10.53;;;1.50;87.50;;;;;;4979650;28;20011;-91
2021/01/16 07:00:15;;;;;;;23.33;10.90;;;1.50;87.80;;;;;;4979603;28;20038;-92
2021/01/16 07:02:46;;;;;;;25.63;11.53;;;1.50;87.80;;;;;;4979588;28;20015;-91
2021/01/16 07:05:21;;;;;;;24.27;11.63;;;1.60;87.80;;;;;;4979132;28;20046;-91
2021/01/16 07:07:52;;;;;;;23.50;11.63;;;1.60;87.80;;;;;;4979023;28;20026;-91
2021/01/16 07:10:22;;;;;;;23.73;10.77;;;1.60;87.50;;;;;;4979102;28;20020;-91
2021/01/16 07:12:50;;;;;;;23.10;10.70;;;1.60;87.70;;;;;;4979416;28;20015;-91
2021/01/16 07:15:17;;;;;;;22.40;10.77;;;1.60;87.60;;;;;;4979302;28;20042;-92
2021/01/16 07:17:44;;;;;;;24.43;12.27;;;1.60;87.80;;;;;;4978855;28;20047;-90
2021/01/16 07:20:10;;;;;;;25.20;11.33;;;1.60;87.50;;;;;;4979410;28;20019;-91
2021/01/16 07:22:38;;;;;;;24.60;11.43;;;1.60;87.60;;;;;;4979171;28;20046;-91
2021/01/16 07:25:05;;;;;;;24.00;10.73;;;1.60;87.00;;;;;;4979108;28;20023;-91
2021/01/16 07:27:33;;;;;;;25.80;11.83;;;1.60;87.40;;;;;;4978315;28;20047;-91
2021/01/16 07:30:04;;;;;;;24.43;10.97;;;1.60;87.30;;;;;;4979419;28;20022;-91
2021/01/16 07:32:42;;;;;;;24.53;11.17;;;1.60;87.00;;;;;;4978447;28;20024;-91
2021/01/16 07:35:21;;;;;;;23.13;11.37;;;1.60;87.40;;;;;;4978762;28;20038;-92
2021/01/16 07:37:53;;;;;;;24.13;11.50;;;1.60;87.00;;;;;;4979154;28;20007;-91
2021/01/16 07:40:21;;;;;;;22.83;10.93;;;1.60;87.20;;;;;;4978877;28;20035;-91
2021/01/16 07:42:58;;;;;;;22.83;10.50;;;1.60;87.90;;;;;;4979139;28;20019;-91
2021/01/16 07:45:26;;;;;;;26.13;10.90;;;1.60;87.40;;;;;;4978856;28;20029;-91
2021/01/16 07:47:54;;;;;;;25.07;11.77;;;1.60;86.60;;;;;;4978767;28;20042;-91
2021/01/16 07:50:23;;;;;;;21.83;10.40;;;1.60;87.20;;;;;;4978631;28;20015;-92
2021/01/16 07:53:09;;;;;;;27.40;11.52;;;1.70;87.10;;;;;;4978780;28;20031;-90
2021/01/16 07:55:35;;;;;;;26.07;11.20;;;1.70;86.90;;;;;;4982008;28;20035;-92
2021/01/16 07:58:13;;;;;;;23.40;10.93;;;1.70;87.00;;;;;;4981773;28;20038;-91
2021/01/16 08:00:44;;;;;;;23.65;11.20;;;1.70;86.70;;;;;;4982129;28;20047;-91
2021/01/16 08:03:24;;;;;;;23.43;10.40;;;1.70;86.70;;;;;;4981840;28;20042;-91
2021/01/16 08:06:11;;;;;;;26.73;11.27;;;1.70;86.70;;;;;;4981999;28;20018;-91
2021/01/16 08:08:57;;;;;;;22.63;10.90;;;1.70;86.80;;;;;;4982118;28;20027;-91
2021/01/16 08:11:29;;;;;;;23.17;10.97;;;1.70;86.70;;;;;;4982020;28;20028;-91
2021/01/16 08:14:03;;;;;;;22.70;10.20;;;1.70;87.10;;;;;;4982209;28;20039;-91
2021/01/16 08:16:29;;;;;;;23.17;11.10;;;1.70;87.20;;;;;;4982209;28;20046;-90
2021/01/16 08:19:12;;;;;;;27.83;12.03;;;1.60;86.50;;;;;;4982177;28;20031;-91
2021/01/16 08:21:52;;;;;;;23.40;10.83;;;1.60;87.00;;;;;;4982178;28;20552;-90
2021/01/16 08:24:20;;;;;;;23.57;10.47;;;1.60;87.10;;;;;;4982047;28;20015;-91
2021/01/16 08:26:59;;;;;;;25.23;11.20;;;1.60;86.60;;;;;;4982178;28;20138;-91
2021/01/16 08:29:25;;;;;;;;;;;1.60;87.20;;;;;;4982313;28;20019;-91
2021/01/16 08:32:09;;;;;;;24.17;11.17;;;1.60;86.90;;;;;;4981532;28;19917;-92
2021/01/16 08:34:58;;;;;;;23.07;10.70;;;1.60;86.30;;;;;;4981277;28;20019;-91
2021/01/16 08:37:35;;;;;;;21.33;9.77;;;1.60;86.80;;;;;;4981656;28;20014;-91
2021/01/16 08:40:08;;;;;;;24.57;10.50;;;1.60;86.80;;;;;;4981950;28;20050;-90
2021/01/16 08:42:34;;;;;;;23.80;10.50;;;1.70;86.90;;;;;;4981824;28;20016;-92
2021/01/16 08:45:02;;;;;;;22.30;10.67;;;1.60;87.00;;;;;;4981890;28;20123;-91
2021/01/16 08:47:28;;;;;;;22.80;11.60;;;1.60;87.20;;;;;;4981658;28;20027;-91
2021/01/16 08:50:14;;;;;;;21.90;10.03;;;1.70;87.40;;;;;;4981782;28;20030;-91
2021/01/16 08:52:40;;;;;;;23.70;10.00;;;1.60;86.00;;;;;;4981605;28;20083;-91
2021/01/16 08:55:06;;;;;;;23.23;10.63;;;1.70;86.70;;;;;;4981772;28;20020;-90
2021/01/16 08:57:33;;;;;;;22.17;9.77;;;1.70;86.60;;;;;;4981640;28;20038;-92
2021/01/16 09:00:14;;;;;;;20.10;9.93;;;1.70;87.00;;;;;;4981716;28;20112;-92
2021/01/16 09:02:41;;;;;;;22.33;10.37;;;1.70;87.00;;;;;;4981593;28;20042;-91
2021/01/16 09:05:25;;;;;;;21.43;9.90;;;1.70;86.00;;;;;;4980782;28;20088;-92
2021/01/16 09:07:53;;;;;;;23.07;10.57;;;1.80;86.40;;;;;;4981174;28;20027;-90
2021/01/16 09:10:27;;;;;;;20.47;9.13;;;1.80;85.90;;;;;;4981828;28;20043;-91
2021/01/16 09:12:52;;;;;;;20.23;8.80;;;1.80;85.90;;;;;;4981610;28;20019;-91
2021/01/16 09:15:26;;;;;;;20.30;9.80;;;1.80;85.90;;;;;;4981072;28;20043;-91
2021/01/16 09:18:09;;;;;;;20.07;9.17;;;1.80;85.00;;;;;;4981232;28;20015;-91
2021/01/16 09:20:46;;;;;;;21.50;9.67;;;1.80;85.20;;;;;;4981021;28;20043;-91
2021/01/16 09:23:26;;;;;;;22.40;9.63;;;1.80;86.10;;;;;;4980773;28;20035;-91
2021/01/16 09:26:07;;;;;;;22.40;10.57;;;1.80;85.90;;;;;;4979760;28;20031;-91
2021/01/16 09:28:54;;;;;;;19.87;9.63;;;1.80;84.90;;;;;;4980388;28;20019;-91
2021/01/16 09:31:42;;;;;;;21.33;9.37;;;1.80;85.60;;;;;;4980913;28;20015;-91
2021/01/16 09:34:13;;;;;;;21.10;9.83;;;1.80;85.80;;;;;;4980776;28;20035;-91
2021/01/16 09:36:43;;;;;;;23.00;9.53;;;1.90;86.30;;;;;;4980586;28;20007;-91
2021/01/16 09:39:16;;;;;;;21.33;9.37;;;1.90;86.30;;;;;;4980469;28;20023;-91
2021/01/16 09:41:43;;;;;;;19.70;8.73;;;1.90;85.50;;;;;;4980993;28;20035;-91
2021/01/16 09:44:08;;;;;;;21.60;9.40;;;1.90;85.40;;;;;;4980547;28;20043;-91
2021/01/16 09:46:39;;;;;;;21.40;9.53;;;1.90;85.70;;;;;;4980317;28;20015;-91
2021/01/16 09:49:07;;;;;;;21.73;9.80;;;2.00;84.90;;;;;;4980086;28;20043;-91
2021/01/16 09:51:37;;;;;;;20.20;10.17;;;1.90;84.50;;;;;;4980534;28;20046;-91
2021/01/16 09:54:16;;;;;;;20.20;9.37;;;1.90;85.10;;;;;;4980487;28;20020;-90
2021/01/16 09:56:43;;;;;;;19.13;8.45;;;2.00;85.70;;;;;;4978233;29;20031;-91
2021/01/16 09:59:12;;;;;;;21.93;9.43;;;2.00;84.80;;;;;;4978340;28;20047;-91
2021/01/16 10:01:38;;;;;;;21.75;9.77;;;1.90;85.80;;;;;;4979356;29;20011;-92
2021/01/16 10:04:05;;;;;;;19.17;8.77;;;2.00;84.80;;;;;;4979165;28;20038;-91
2021/01/16 10:06:34;;;;;;;20.17;9.00;;;2.00;84.60;;;;;;4979154;29;20039;-92
2021/01/16 10:09:00;;;;;;;;;;;1.90;84.90;;;;;;4978848;28;20023;-91
2021/01/16 10:11:41;;;;;;;21.30;9.03;;;2.00;84.00;;;;;;4979266;28;20798;-91
2021/01/16 10:14:20;;;;;;;23.37;9.50;;;2.00;83.50;;;;;;4979133;28;20035;-91
2021/01/16 10:16:47;;;;;;;22.30;9.70;;;2.00;84.60;;;;;;4978845;28;20015;-91
2021/01/16 10:19:14;;;;;;;24.43;10.47;;;2.00;84.40;;;;;;4978814;29;20011;-91
2021/01/16 10:21:57;;;;;;;21.33;9.97;;;2.00;83.50;;;;;;4978683;28;20016;-91
2021/01/16 10:24:24;;;;;;;21.53;9.77;;;2.00;84.60;;;;;;4978499;29;20019;-91
2021/01/16 10:26:51;;;;;;;20.70;9.30;;;2.00;83.50;;;;;;4978585;29;20015;-91
2021/01/16 10:29:19;;;;;;;19.57;9.43;;;2.00;84.80;;;;;;4978611;29;20042;-91
2021/01/16 10:31:45;;;;;;;21.53;9.23;;;2.00;84.60;;;;;;4978503;28;20011;-91
2021/01/16 10:34:11;;;;;;;21.17;9.40;;;2.00;84.70;;;;;;4978962;28;20027;-91
2021/01/16 10:36:37;;;;;;;19.90;9.07;;;2.10;83.60;;;;;;4979188;28;20045;-91
2021/01/16 10:39:16;;;;;;;20.77;9.50;;;2.10;83.20;;;;;;4978395;29;20011;-91
2021/01/16 10:41:46;;;;;;;20.40;8.45;;;2.10;83.70;;;;;;4979354;28;20066;-91
2021/01/16 10:44:19;;;;;;;23.70;9.80;;;2.10;84.10;;;;;;4978737;28;20059;-91
2021/01/16 10:46:47;;;;;;;21.83;9.97;;;2.10;84.40;;;;;;4978330;29;20030;-91
2021/01/16 10:49:20;;;;;;;23.57;10.27;;;2.10;83.70;;;;;;4979100;28;20030;-91
2021/01/16 10:52:02;;;;;;;22.60;10.10;;;2.10;84.20;;;;;;4979290;28;20023;-91
2021/01/16 10:54:31;;;;;;;23.07;9.17;;;2.10;84.00;;;;;;4978832;29;20011;-91
2021/01/16 10:57:08;;;;;;;20.75;9.13;;;2.10;83.80;;;;;;4979412;28;20039;-91
2021/01/16 10:59:51;;;;;;;21.33;9.80;;;2.10;84.50;;;;;;4978801;28;20102;-91
2021/01/16 11:02:17;;;;;;;21.10;9.87;;;2.10;83.20;;;;;;4978848;28;20030;-91
2021/01/16 11:04:45;;;;;;;22.17;10.03;;;2.10;83.80;;;;;;4978484;28;20087;-92
2021/01/16 11:07:26;;;;;;;21.57;10.20;;;2.20;84.90;;;;;;4979565;28;20032;-91
2021/01/16 11:10:06;;;;;;;20.73;8.47;;;2.20;84.90;;;;;;4979074;28;20034;-91
2021/01/16 11:12:32;;;;;;;22.80;10.47;;;2.20;84.50;;;;;;4978710;28;20034;-91
2021/01/16 11:15:01;;;;;;;21.50;10.23;;;2.20;83.90;;;;;;4978999;28;20059;-91
2021/01/16 11:17:47;;;;;;;25.83;12.35;;;2.20;84.10;;;;;;4978865;28;20464;-91
2021/01/16 11:20:30;;;;;;;24.40;11.57;;;2.20;81.60;;;;;;4979038;28;20024;-91
2021/01/16 11:23:05;;;;;;;24.13;10.80;;;2.20;84.20;;;;;;4979205;28;20042;-91
2021/01/16 11:25:40;;;;;;;21.77;9.70;;;2.20;82.00;;;;;;4979205;28;20103;-91
2021/01/16 11:28:08;;;;;;;23.07;10.63;;;2.20;84.40;;;;;;4980141;28;20038;-90
2021/01/16 11:30:42;;;;;;;21.20;9.87;;;2.20;83.70;;;;;;4983044;28;20018;-91
2021/01/16 11:33:30;;;;;;;20.60;9.33;;;2.20;84.30;;;;;;4982945;28;20047;-91
2021/01/16 11:36:02;;;;;;;21.70;10.63;;;2.20;84.60;;;;;;4982363;28;20069;-91
2021/01/16 11:38:45;;;;;;;22.73;10.90;;;2.10;83.90;;;;;;4982884;28;20039;-91
2021/01/16 11:41:12;;;;;;;23.10;11.63;;;2.10;84.20;;;;;;4982918;28;20026;-91
2021/01/16 11:43:39;;;;;;;23.50;10.30;;;2.20;83.90;;;;;;4982744;28;20027;-91
2021/01/16 11:46:14;;;;;;;22.47;10.67;;;2.20;84.80;;;;;;4982889;28;20019;-91
2021/01/16 11:48:41;;;;;;;25.17;10.90;;;2.20;84.30;;;;;;4982292;28;20038;-92
2021/01/16 11:51:17;;;;;;;22.77;11.23;;;2.20;84.10;;;;;;4982568;28;20031;-91
2021/01/16 11:53:51;;;;;;;24.77;10.70;;;2.20;84.50;;;;;;4982479;28;20012;-91
2021/01/16 11:56:25;;;;;;;25.40;10.63;;;2.20;84.10;;;;;;4981817;28;20020;-91
2021/01/16 11:58:53;;;;;;;21.97;10.67;;;2.20;84.50;;;;;;4988231;28;20034;-91
2021/01/16 12:01:18;;;;;;;24.40;10.87;;;2.20;83.90;;;;;;5004480;28;20035;-90
2021/01/16 12:03:44;;;;;;;22.47;11.17;;;2.20;83.50;;;;;;5004733;28;20021;-92
2021/01/16 12:06:14;;;;;;;22.23;11.23;;;2.20;83.80;;;;;;5005209;28;20020;-91
2021/01/16 12:08:48;;;;;;;23.37;11.00;;;2.20;84.10;;;;;;5005038;28;20038;-91
2021/01/16 12:11:14;;;;;;;21.30;9.80;;;2.10;84.20;;;;;;5004468;28;20035;-91
2021/01/16 12:13:49;;;;;;;22.77;10.83;;;2.10;84.60;;;;;;5004812;28;20022;-90
2021/01/16 12:16:15;;;;;;;22.73;10.83;;;2.10;83.80;;;;;;5005004;28;20006;-91
2021/01/16 12:18:41;;;;;;;22.80;11.17;;;2.10;83.40;;;;;;5004836;28;20034;-91
2021/01/16 12:21:11;;;;;;;23.07;11.20;;;2.10;84.10;;;;;;5004894;28;20050;-92
2021/01/16 12:23:46;;;;;;;25.00;11.00;;;2.10;83.90;;;;;;5004225;28;20056;-91
2021/01/16 12:26:15;;;;;;;25.83;11.50;;;2.10;84.60;;;;;;5004419;28;20046;-90
2021/01/16 12:28:51;;;;;;;21.95;10.80;;;2.10;83.60;;;;;;5004439;28;20073;-91
2021/01/16 12:31:25;;;;;;;24.17;10.57;;;2.20;84.90;;;;;;5004674;28;20018;-91
2021/01/16 12:33:52;;;;;;;25.03;11.47;;;2.20;84.60;;;;;;5004510;28;20014;-91
2021/01/16 12:36:19;;;;;;;25.00;11.83;;;2.20;84.30;;;;;;5004273;28;20037;-91
2021/01/16 12:38:52;;;;;;;23.43;11.67;;;2.20;84.60;;;;;;5004125;28;20057;-92
2021/01/16 12:41:25;;;;;;;26.47;12.17;;;2.20;84.50;;;;;;5003636;28;20031;-91
2021/01/16 12:43:51;;;;;;;26.43;12.57;;;2.20;84.30;;;;;;5004417;28;20054;-91
2021/01/16 12:46:18;;;;;;;30.73;13.40;;;2.20;84.50;;;;;;5004432;28;20030;-91
2021/01/16 12:48:44;;;;;;;27.30;12.87;;;2.20;84.70;;;;;;5004084;28;20026;-91
2021/01/16 12:51:14;;;;;;;30.87;13.63;;;2.30;84.80;;;;;;5003571;28;20030;-91
2021/01/16 12:53:47;;;;;;;25.40;11.73;;;2.20;84.00;;;;;;5003967;28;20017;-91
2021/01/16 12:56:21;;;;;;;23.93;11.93;;;2.30;84.20;;;;;;5003896;28;20030;-91
2021/01/16 12:58:48;;;;;;;34.63;16.33;;;2.20;84.50;;;;;;5004000;28;20031;-91